Aughwick, Pennsylvania
Current Conditions -  °F | °C
As of 10:53 PM on Wednesday 22 Oct 2014 (Local Time) from KAOO Reporting Station
Overcast Overcast  
Wind Chill: 42°   Ceiling: 2000
Heat Index: 47°   Visibility: 10mi
Dew Point: 40°   Wind: 12mph
Humidity: 77%   Direction: 350°N
Pressure: 30.06"   Gusts: NA
Location:  40.4281°N, 77.8329°W
Report Text: KAOO 230253Z AUTO 35010KT 10SM BKN020 OVC025 08/04 A3006 RMK AO2 SLP185 T00830044 58006
Loading
Personal Weather Stations






























Interactive Weather Map New forecast layout! Learn more

10-Day Weather Forecast

Advertisements
Track Severe Weather on mobile